createdAt,value
2022-11-20T00:00:28.528Z,100246.91
2022-11-20T00:02:56.733Z,100013.56
2022-11-20T00:05:25.657Z,99912.47
2022-11-20T00:07:53.679Z,100028.75
2022-11-20T00:10:23.197Z,100229.22
2022-11-20T00:12:51.455Z,100004.25
2022-11-20T00:15:19.488Z,100207.25
2022-11-20T00:17:50.190Z,99925.25
2022-11-20T00:20:20.343Z,100229.00
2022-11-20T00:22:48.536Z,99888.09
2022-11-20T00:25:18.897Z,100189.22
2022-11-20T00:27:48.400Z,99613.75
2022-11-20T00:30:30.448Z,100050.31
2022-11-20T00:32:59.594Z,100227.78
2022-11-20T00:35:27.715Z,99990.28
2022-11-20T00:37:56.008Z,100225.16
2022-11-20T00:40:24.773Z,99974.22
2022-11-20T00:42:55.060Z,100226.22
2022-11-20T00:45:23.076Z,99846.66
2022-11-20T00:47:50.993Z,100011.44
2022-11-20T00:50:19.053Z,99749.03
2022-11-20T00:52:47.792Z,99996.25
2022-11-20T00:55:16.317Z,100064.19
2022-11-20T01:17:42.308Z,99981.69
2022-11-20T01:20:11.645Z,100187.91
2022-11-20T01:22:40.362Z,100006.09
2022-11-20T01:25:08.928Z,100176.50
2022-11-20T01:27:36.917Z,99939.03
2022-11-20T01:30:08.934Z,99849.00
2022-11-20T01:32:39.829Z,99974.19
2022-11-20T01:35:10.527Z,100049.22
2022-11-20T01:37:38.615Z,100189.81
2022-11-20T01:40:08.776Z,100173.00
2022-11-20T01:42:54.526Z,99930.63
2022-11-20T01:45:58.077Z,100191.56
2022-11-20T01:48:30.132Z,99930.53
2022-11-20T01:51:00.313Z,100002.88
2022-11-20T01:53:33.939Z,100082.75
2022-11-20T01:56:04.923Z,100192.13
2022-11-20T01:58:37.243Z,100012.59
2022-11-20T02:01:07.002Z,100105.19
2022-11-20T02:03:35.003Z,100129.56
2022-11-20T02:06:08.927Z,100065.59
2022-11-20T02:08:38.542Z,100195.22
2022-11-20T02:11:06.585Z,100198.59
2022-11-20T02:13:47.278Z,100144.75
2022-11-20T02:16:20.692Z,100179.25
2022-11-20T02:18:49.509Z,100149.69
2022-11-20T02:21:26.356Z,100208.66
2022-11-20T02:24:07.647Z,100106.81
2022-11-20T02:26:39.723Z,100209.41
2022-11-20T02:29:07.721Z,100212.03
2022-11-20T02:31:42.185Z,100051.16
2022-11-20T02:34:12.650Z,100047.78
2022-11-20T02:36:51.610Z,100023.44
2022-11-20T02:39:25.454Z,99886.16
2022-11-20T02:41:56.196Z,99991.28
2022-11-20T02:44:28.783Z,100186.53
2022-11-20T02:47:05.307Z,100059.63
2022-11-20T02:49:41.184Z,100192.66
2022-11-20T02:52:25.040Z,100170.75
2022-11-20T02:54:59.136Z,100149.63
2022-11-20T02:57:31.757Z,99812.63
2022-11-20T03:00:10.167Z,99823.47
2022-11-20T03:02:46.816Z,100180.13
2022-11-20T03:05:20.226Z,99867.97
2022-11-20T03:07:58.501Z,99966.25
2022-11-20T03:10:43.371Z,100157.00
2022-11-20T03:13:24.137Z,100150.25
2022-11-20T03:16:11.878Z,100175.81
2022-11-20T03:19:11.756Z,100147.81
2022-11-20T03:21:55.175Z,100145.41
2022-11-20T03:24:26.209Z,99824.28
2022-11-20T03:27:04.927Z,100176.94
2022-11-20T03:59:58.755Z,100149.06
2022-11-20T04:02:26.617Z,100031.22
2022-11-20T04:04:54.836Z,99791.44
2022-11-20T04:07:25.214Z,99841.78
2022-11-20T04:09:56.620Z,99867.03
2022-11-20T04:12:29.232Z,99815.97
2022-11-20T04:14:57.151Z,99825.03
2022-11-20T04:17:25.048Z,99862.66
2022-11-20T04:19:53.302Z,100077.94
2022-11-20T04:22:21.504Z,99922.34
2022-11-20T04:24:49.471Z,100132.66
2022-11-20T04:27:17.518Z,100128.41
2022-11-20T04:29:46.910Z,100037.72
2022-11-20T04:32:14.782Z,99852.00
2022-11-20T04:34:42.660Z,99837.41
2022-11-20T04:37:10.619Z,100125.69
2022-11-20T04:39:39.795Z,99782.66
2022-11-20T04:42:25.605Z,99919.53
2022-11-20T04:44:55.196Z,100112.19
2022-11-20T04:47:23.442Z,100091.75
2022-11-20T04:49:51.522Z,100033.06
2022-11-20T04:52:20.325Z,100122.81
2022-11-20T04:54:48.266Z,100037.97
2022-11-20T04:57:17.339Z,99774.97
2022-11-20T04:59:45.348Z,100140.75
2022-11-20T05:02:18.058Z,99794.28
2022-11-20T05:04:46.084Z,99731.09
2022-11-20T05:07:14.352Z,99715.09
2022-11-20T05:09:42.425Z,100098.41
2022-11-20T05:12:13.117Z,100122.66
2022-11-20T05:14:42.248Z,100019.31
2022-11-20T05:17:13.376Z,99901.72
2022-11-20T05:19:48.327Z,100093.44
2022-11-20T05:22:19.658Z,100013.28
2022-11-20T05:24:47.617Z,99897.31
2022-11-20T05:27:15.695Z,99910.28
2022-11-20T05:29:44.581Z,99975.50
2022-11-20T05:32:35.694Z,100013.38
2022-11-20T05:35:50.815Z,99793.44
2022-11-20T05:38:50.459Z,99539.91
2022-11-20T05:41:24.784Z,99967.22
2022-11-20T05:43:54.162Z,99920.94
2022-11-20T05:46:28.156Z,99994.91
2022-11-20T05:49:00.188Z,99989.72
2022-11-20T05:51:28.843Z,99978.94
2022-11-20T05:53:58.581Z,100129.50
2022-11-20T05:56:27.935Z,100005.19
2022-11-20T05:58:55.839Z,100073.16
2022-11-20T06:01:25.742Z,100003.50
2022-11-20T06:03:54.826Z,99972.59
2022-11-20T06:06:23.755Z,99984.31
2022-11-20T06:08:51.988Z,100117.28
2022-11-20T06:11:19.865Z,100015.66
2022-11-20T06:13:49.492Z,100147.81
2022-11-20T06:16:19.573Z,100000.53
2022-11-20T06:18:47.923Z,99988.84
2022-11-20T06:21:17.875Z,100090.63
2022-11-20T06:24:19.134Z,99830.91
2022-11-20T06:33:45.292Z,100131.78
2022-11-20T06:36:15.335Z,100152.09
2022-11-20T06:38:44.017Z,100088.84
2022-11-20T06:41:14.092Z,100002.19
2022-11-20T06:43:42.332Z,99950.88
2022-11-20T06:46:14.730Z,99856.78
2022-11-20T06:48:44.124Z,100094.63
2022-11-20T06:51:12.816Z,99908.94
2022-11-20T06:53:41.039Z,99824.16
2022-11-20T06:56:09.720Z,99996.31
2022-11-20T06:58:38.761Z,100018.31
2022-11-20T07:01:09.859Z,100158.78
2022-11-20T07:03:38.217Z,100026.72
2022-11-20T07:06:08.071Z,100098.94
2022-11-20T07:08:36.789Z,100176.50
2022-11-20T07:11:06.876Z,100167.06
2022-11-20T07:13:35.762Z,99965.31
2022-11-20T07:16:06.951Z,100037.47
2022-11-20T07:18:35.170Z,100015.66
2022-11-20T07:21:03.871Z,100043.47
2022-11-20T07:23:33.188Z,100169.34
2022-11-20T07:26:09.572Z,100181.19
2022-11-20T07:28:43.777Z,100060.06
2022-11-20T07:31:19.847Z,100068.44
2022-11-20T07:33:49.630Z,100148.38
2022-11-20T07:36:17.490Z,100187.81
2022-11-20T07:38:47.779Z,99985.16
2022-11-20T07:41:16.790Z,99857.31
2022-11-20T07:43:45.345Z,100089.44
2022-11-20T07:46:28.022Z,100051.50
2022-11-20T07:49:04.933Z,99870.88
2022-11-20T07:51:43.407Z,100069.91
2022-11-20T07:54:42.050Z,99876.69
2022-11-20T07:57:33.956Z,99854.00
2022-11-20T08:05:06.083Z,100190.16
2022-11-20T08:20:41.890Z,100169.88
2022-11-20T08:32:23.694Z,100182.91
2022-11-20T08:34:51.783Z,99899.13
2022-11-20T09:13:00.143Z,99693.66
2022-11-20T09:15:29.207Z,100181.31
2022-11-20T09:18:07.601Z,100082.75
2022-11-20T09:20:36.441Z,99880.97
2022-11-20T09:26:00.736Z,100090.28
2022-11-20T09:28:30.295Z,100204.75
2022-11-20T09:30:58.582Z,100042.00
2022-11-20T09:33:27.928Z,100109.19
2022-11-20T09:36:02.226Z,99914.56
2022-11-20T09:38:30.357Z,99634.75
2022-11-20T09:41:02.258Z,100105.91
2022-11-20T09:43:43.479Z,100164.50
2022-11-20T09:46:36.730Z,100160.59
2022-11-20T09:49:31.974Z,100155.94
2022-11-20T09:52:10.887Z,100144.56
2022-11-20T09:54:42.674Z,100158.41
2022-11-20T09:57:15.591Z,100152.81
2022-11-20T09:59:46.130Z,100136.84
2022-11-20T10:02:18.826Z,100083.38
2022-11-20T10:04:54.043Z,100138.28
2022-11-20T10:07:33.679Z,100155.34
2022-11-20T10:10:02.207Z,100158.91
2022-11-20T10:12:43.816Z,100149.41
2022-11-20T10:15:31.295Z,100028.31
2022-11-20T10:18:26.908Z,100137.63
2022-11-20T10:21:14.088Z,100123.44
2022-11-20T10:24:01.987Z,100138.69
2022-11-20T10:26:39.565Z,100134.03
2022-11-20T10:32:33.363Z,100125.44
2022-11-20T10:35:10.507Z,100070.16
2022-11-20T10:37:44.714Z,100113.09
2022-11-20T10:40:23.675Z,100109.88
2022-11-20T10:43:03.490Z,100099.47
2022-11-20T10:45:50.095Z,100114.81
2022-11-20T10:48:32.502Z,100109.47
2022-11-20T10:51:26.855Z,100091.34
2022-11-20T10:54:07.572Z,100059.38
2022-11-20T10:56:50.204Z,100087.88
2022-11-20T11:03:05.126Z,100060.97
2022-11-20T11:05:46.621Z,100079.41
2022-11-20T11:08:32.822Z,100056.88
2022-11-20T11:11:26.067Z,99981.25
2022-11-20T11:13:54.081Z,100055.53
2022-11-20T11:16:24.548Z,100040.50
2022-11-20T11:18:53.157Z,100026.88
2022-11-20T11:21:59.555Z,100036.03
2022-11-20T11:24:53.647Z,100038.41
2022-11-20T11:27:24.437Z,100042.44
2022-11-20T11:30:04.996Z,100033.75
2022-11-20T11:32:32.994Z,100047.03
2022-11-20T11:35:03.890Z,100041.56
2022-11-20T11:37:36.910Z,99951.13
2022-11-20T11:43:00.882Z,99988.00
2022-11-20T11:45:28.490Z,100005.19
2022-11-20T11:48:02.264Z,100026.00
2022-11-20T11:50:32.587Z,99925.41
2022-11-20T11:53:32.288Z,99925.97
2022-11-20T11:56:47.282Z,99994.50
2022-11-20T11:59:33.866Z,99953.81
2022-11-20T12:02:18.567Z,99992.00
2022-11-20T12:09:05.804Z,99941.22
2022-11-20T12:11:41.271Z,99992.94
2022-11-20T12:14:20.965Z,99949.25
2022-11-20T12:16:54.497Z,99929.06
2022-11-20T12:19:33.059Z,99934.66
2022-11-20T12:22:27.843Z,99932.75
2022-11-20T12:25:10.147Z,99948.53
2022-11-20T12:28:04.438Z,99960.78
2022-11-20T12:30:39.882Z,99951.03
2022-11-20T12:33:39.840Z,99958.44
2022-11-20T12:36:18.216Z,99777.03
2022-11-20T12:39:19.173Z,99937.97
2022-11-20T12:42:22.089Z,99941.22
2022-11-20T12:45:17.699Z,99942.28
2022-11-20T12:48:03.781Z,99919.16
2022-11-20T12:51:13.494Z,99930.41
2022-11-20T12:53:50.787Z,99931.84
2022-11-20T12:56:33.896Z,99793.22
2022-11-20T12:59:32.942Z,99920.81
2022-11-20T13:02:17.597Z,99922.97
2022-11-20T13:05:22.190Z,99908.22
2022-11-20T13:07:58.814Z,99898.91
2022-11-20T13:10:49.238Z,99821.59
2022-11-20T13:13:25.952Z,99901.69
2022-11-20T13:16:03.477Z,99869.56
2022-11-20T13:18:43.207Z,99860.69
2022-11-20T13:21:35.280Z,99847.47
2022-11-20T13:24:09.248Z,99868.44
2022-11-20T13:26:45.345Z,99870.13
2022-11-20T13:29:19.061Z,99865.84
2022-11-20T13:31:55.519Z,99858.16
2022-11-20T13:34:31.965Z,99858.94
2022-11-20T13:37:15.915Z,99823.81
2022-11-20T13:39:45.453Z,99855.06
2022-11-20T13:42:30.244Z,99451.19
2022-11-20T13:45:11.086Z,99853.16
2022-11-20T13:47:52.903Z,99840.56
2022-11-20T13:50:23.775Z,99794.13
2022-11-20T13:53:02.427Z,99810.00
2022-11-20T13:55:41.092Z,99834.25
2022-11-20T13:58:24.641Z,99806.22
2022-11-20T14:00:59.066Z,99808.47
2022-11-20T14:03:58.997Z,99819.81
2022-11-20T14:06:29.239Z,99783.53
2022-11-20T14:08:58.735Z,99734.94
2022-11-20T14:11:29.902Z,99669.06
2022-11-20T14:14:05.253Z,99769.56
2022-11-20T14:16:43.396Z,99705.22
2022-11-20T14:19:27.726Z,99766.13
2022-11-20T14:22:08.769Z,99742.00
2022-11-20T14:24:37.095Z,99782.06
2022-11-20T14:27:05.333Z,99763.78
2022-11-20T14:29:38.016Z,99748.81
2022-11-20T14:32:07.738Z,99684.59
2022-11-20T14:34:50.909Z,99778.44
2022-11-20T14:37:23.643Z,99747.38
2022-11-20T14:39:54.007Z,99750.13
2022-11-20T14:42:25.101Z,99702.53
2022-11-20T14:44:57.190Z,99716.84
2022-11-20T14:47:28.069Z,99639.28
2022-11-20T14:49:59.094Z,99692.13
2022-11-20T14:52:28.518Z,99727.25
2022-11-20T14:55:00.409Z,99725.47
2022-11-20T14:57:32.623Z,99723.97
2022-11-20T15:00:20.731Z,99671.03
2022-11-20T15:02:49.990Z,99706.22
2022-11-20T15:05:49.063Z,99656.34
2022-11-20T15:08:18.532Z,99727.06
2022-11-20T15:10:51.712Z,99716.44
2022-11-20T15:13:27.351Z,99705.34
2022-11-20T15:15:57.063Z,99727.94
2022-11-20T15:18:28.268Z,99707.06
2022-11-20T15:20:59.681Z,99703.59
2022-11-20T16:24:41.329Z,99647.47
2022-11-20T16:27:57.447Z,99642.47
2022-11-20T16:30:53.738Z,99629.28
2022-11-20T17:00:27.095Z,99583.44
2022-11-20T17:04:18.753Z,99583.59
2022-11-20T17:07:52.956Z,99267.25
2022-11-20T17:11:15.636Z,99574.19
2022-11-20T17:23:36.700Z,99563.47
2022-11-20T17:33:07.821Z,99563.22
2022-11-20T17:39:55.620Z,99534.09
2022-11-20T17:45:52.708Z,99192.09
2022-11-20T17:48:29.225Z,99505.66
2022-11-20T17:51:16.104Z,99513.19
2022-11-20T17:58:00.288Z,99492.06
2022-11-20T18:00:58.047Z,99490.94
2022-11-20T18:03:35.318Z,99378.03
2022-11-20T18:36:26.268Z,99427.63
2022-11-20T18:39:37.136Z,99425.78
2022-11-20T18:46:08.869Z,99420.50
2022-11-20T18:52:56.183Z,99177.66
2022-11-20T18:56:33.302Z,99413.06
2022-11-20T18:59:34.445Z,99383.50
2022-11-20T19:02:10.671Z,99327.78
2022-11-20T19:04:47.567Z,99422.00
2022-11-20T19:12:41.788Z,99411.44
2022-11-20T19:20:12.295Z,99410.66
2022-11-20T19:22:49.205Z,99402.91
2022-11-20T19:30:30.206Z,99403.41
2022-11-20T19:34:42.306Z,99399.78
2022-11-20T19:38:18.551Z,99398.03
2022-11-20T20:16:09.795Z,99268.69
2022-11-20T20:19:11.535Z,99395.09
2022-11-20T20:21:41.916Z,99128.66
2022-11-20T20:24:15.726Z,99401.53
2022-11-20T20:27:05.882Z,99400.47
2022-11-20T20:29:38.399Z,99096.63
2022-11-20T20:32:26.548Z,99398.63
2022-11-20T20:35:17.351Z,99400.19
2022-11-20T20:38:31.625Z,99305.31
2022-11-20T20:41:26.365Z,99301.97
2022-11-20T20:44:21.506Z,99025.91
2022-11-20T20:47:11.938Z,99089.63
2022-11-20T20:50:26.109Z,99184.78
2022-11-20T20:56:33.667Z,99411.03
2022-11-20T20:59:18.461Z,99293.28
2022-11-20T21:01:47.425Z,99096.72
2022-11-20T21:04:45.692Z,99434.69
2022-11-20T21:08:22.155Z,99374.13
2022-11-20T21:15:33.919Z,99413.25
2022-11-20T21:18:34.958Z,99396.94
2022-11-20T21:22:53.700Z,99398.78
2022-11-20T21:26:11.884Z,99368.13
2022-11-20T21:37:05.530Z,99402.41
2022-11-20T21:40:54.089Z,99345.78
2022-11-20T21:47:39.867Z,99409.91
2022-11-20T21:50:34.872Z,99116.75
2022-11-20T21:53:53.206Z,99149.16
2022-11-20T21:57:13.025Z,99400.59
2022-11-20T22:00:51.253Z,99226.66
2022-11-20T22:04:12.604Z,99425.69
2022-11-20T22:14:47.607Z,99413.03
2022-11-20T22:18:09.358Z,99402.66
2022-11-20T22:20:53.586Z,99413.19
2022-11-20T22:23:54.592Z,99106.31
2022-11-20T22:35:01.993Z,99340.63
2022-11-20T22:41:18.521Z,99423.69
2022-11-20T22:44:09.688Z,99173.50
2022-11-20T22:48:38.128Z,99443.06
2022-11-20T22:52:45.345Z,99443.00
2022-11-20T22:57:04.699Z,99307.06
2022-11-20T23:00:36.028Z,99441.41
2022-11-20T23:08:51.805Z,99445.00
2022-11-20T23:21:40.590Z,99467.25
2022-11-20T23:25:33.296Z,99472.31
2022-11-20T23:29:01.764Z,99494.72
2022-11-20T23:32:00.856Z,99425.75
2022-11-20T23:39:13.500Z,99470.81
2022-11-20T23:50:59.723Z,99483.16
2022-11-20T23:54:18.001Z,99467.75
2022-11-20T23:57:27.581Z,99465.13
